sensor_id;sensor_type;location;lat;lon;timestamp;temperature;humidity
15115;DHT22;7658;51.456;7.622;2023-04-29T00:02:01;11.60;99.90
15115;DHT22;7658;51.456;7.622;2023-04-29T00:04:27;11.60;99.90
15115;DHT22;7658;51.456;7.622;2023-04-29T00:06:53;11.60;99.90
15115;DHT22;7658;51.456;7.622;2023-04-29T00:09:19;11.50;99.90
15115;DHT22;7658;51.456;7.622;2023-04-29T00:11:45;11.50;99.90
15115;DHT22;7658;51.456;7.622;2023-04-29T00:14:12;11.40;99.90
15115;DHT22;7658;51.456;7.622;2023-04-29T00:16:38;11.40;99.90
15115;DHT22;7658;51.456;7.622;2023-04-29T00:19:04;11.30;99.90
15115;DHT22;7658;51.456;7.622;2023-04-29T00:21:30;11.30;99.90
15115;DHT22;7658;51.456;7.622;2023-04-29T00:23:57;11.20;99.90
15115;DHT22;7658;51.456;7.622;2023-04-29T00:26:23;11.20;99.90
15115;DHT22;7658;51.456;7.622;2023-04-29T00:28:49;11.20;99.90
15115;DHT22;7658;51.456;7.622;2023-04-29T00:31:14;11.20;99.90
15115;DHT22;7658;51.456;7.622;2023-04-29T00:33:40;11.20;99.90
15115;DHT22;7658;51.456;7.622;2023-04-29T00:36:06;11.20;99.90
15115;DHT22;7658;51.456;7.622;2023-04-29T00:38:33;11.20;99.90
15115;DHT22;7658;51.456;7.622;2023-04-29T00:40:59;11.20;99.90
15115;DHT22;7658;51.456;7.622;2023-04-29T00:43:25;11.20;99.90
15115;DHT22;7658;51.456;7.622;2023-04-29T00:45:51;11.20;99.90
15115;DHT22;7658;51.456;7.622;2023-04-29T00:48:17;11.20;99.90
15115;DHT22;7658;51.456;7.622;2023-04-29T00:50:42;11.20;99.90
15115;DHT22;7658;51.456;7.622;2023-04-29T00:53:09;11.20;99.90
15115;DHT22;7658;51.456;7.622;2023-04-29T00:55:37;11.20;99.90
15115;DHT22;7658;51.456;7.622;2023-04-29T00:58:03;11.20;99.90
15115;DHT22;7658;51.456;7.622;2023-04-29T01:00:29;11.20;99.90
15115;DHT22;7658;51.456;7.622;2023-04-29T01:02:56;11.20;99.90
15115;DHT22;7658;51.456;7.622;2023-04-29T01:05:25;11.20;99.90
15115;DHT22;7658;51.456;7.622;2023-04-29T01:09:15;11.20;99.90
15115;DHT22;7658;51.456;7.622;2023-04-29T01:11:07;11.20;99.90
15115;DHT22;7658;51.456;7.622;2023-04-29T01:13:50;11.10;99.90
15115;DHT22;7658;51.456;7.622;2023-04-29T01:16:33;11.20;99.90
15115;DHT22;7658;51.456;7.622;2023-04-29T01:19:12;11.20;99.90
15115;DHT22;7658;51.456;7.622;2023-04-29T01:21:47;11.10;99.90
15115;DHT22;7658;51.456;7.622;2023-04-29T01:24:16;11.10;99.90
15115;DHT22;7658;51.456;7.622;2023-04-29T01:26:48;11.00;99.90
15115;DHT22;7658;51.456;7.622;2023-04-29T01:29:34;11.00;99.90
15115;DHT22;7658;51.456;7.622;2023-04-29T01:32:17;10.90;99.90
15115;DHT22;7658;51.456;7.622;2023-04-29T01:40:33;10.80;99.90
15115;DHT22;7658;51.456;7.622;2023-04-29T01:43:01;10.80;99.90
15115;DHT22;7658;51.456;7.622;2023-04-29T01:45:30;10.80;99.90
15115;DHT22;7658;51.456;7.622;2023-04-29T01:47:57;10.80;99.90
15115;DHT22;7658;51.456;7.622;2023-04-29T01:50:23;10.80;99.90
15115;DHT22;7658;51.456;7.622;2023-04-29T01:52:49;10.80;99.90
15115;DHT22;7658;51.456;7.622;2023-04-29T01:55:15;10.80;99.90
15115;DHT22;7658;51.456;7.622;2023-04-29T01:57:41;10.70;99.90
15115;DHT22;7658;51.456;7.622;2023-04-29T02:00:07;10.70;99.90
15115;DHT22;7658;51.456;7.622;2023-04-29T02:02:33;10.70;99.90
15115;DHT22;7658;51.456;7.622;2023-04-29T02:04:59;10.60;99.90
15115;DHT22;7658;51.456;7.622;2023-04-29T02:07:25;10.70;99.90
15115;DHT22;7658;51.456;7.622;2023-04-29T02:09:50;10.60;99.90
15115;DHT22;7658;51.456;7.622;2023-04-29T02:12:16;10.60;99.90
15115;DHT22;7658;51.456;7.622;2023-04-29T02:14:42;10.50;99.90
15115;DHT22;7658;51.456;7.622;2023-04-29T02:17:08;10.50;99.90
15115;DHT22;7658;51.456;7.622;2023-04-29T02:19:33;10.50;99.90
15115;DHT22;7658;51.456;7.622;2023-04-29T02:21:59;10.50;99.90
15115;DHT22;7658;51.456;7.622;2023-04-29T02:24:25;10.50;99.90
15115;DHT22;7658;51.456;7.622;2023-04-29T02:26:51;10.40;99.90
15115;DHT22;7658;51.456;7.622;2023-04-29T02:29:18;10.40;99.90
15115;DHT22;7658;51.456;7.622;2023-04-29T02:31:43;10.40;99.90
15115;DHT22;7658;51.456;7.622;2023-04-29T02:34:09;10.40;99.90
15115;DHT22;7658;51.456;7.622;2023-04-29T02:36:35;10.30;99.90
15115;DHT22;7658;51.456;7.622;2023-04-29T02:39:01;10.30;99.90
15115;DHT22;7658;51.456;7.622;2023-04-29T02:41:26;10.30;99.90
15115;DHT22;7658;51.456;7.622;2023-04-29T02:43:52;10.30;99.90
15115;DHT22;7658;51.456;7.622;2023-04-29T02:46:18;10.20;99.90
15115;DHT22;7658;51.456;7.622;2023-04-29T02:48:44;10.10;99.90
15115;DHT22;7658;51.456;7.622;2023-04-29T02:51:10;10.00;99.90
15115;DHT22;7658;51.456;7.622;2023-04-29T02:53:36;10.00;99.90
15115;DHT22;7658;51.456;7.622;2023-04-29T02:56:01;9.90;99.90
15115;DHT22;7658;51.456;7.622;2023-04-29T02:58:27;9.90;99.90
15115;DHT22;7658;51.456;7.622;2023-04-29T03:00:53;9.90;99.90
15115;DHT22;7658;51.456;7.622;2023-04-29T03:03:19;9.80;99.90
15115;DHT22;7658;51.456;7.622;2023-04-29T03:05:44;9.80;99.90
15115;DHT22;7658;51.456;7.622;2023-04-29T03:08:10;9.80;99.90
15115;DHT22;7658;51.456;7.622;2023-04-29T03:10:36;9.80;99.90
15115;DHT22;7658;51.456;7.622;2023-04-29T03:13:02;9.70;99.90
15115;DHT22;7658;51.456;7.622;2023-04-29T03:15:27;9.70;99.90
15115;DHT22;7658;51.456;7.622;2023-04-29T03:17:54;9.70;99.90
15115;DHT22;7658;51.456;7.622;2023-04-29T03:20:20;9.80;99.90
15115;DHT22;7658;51.456;7.622;2023-04-29T03:22:45;9.70;99.90
15115;DHT22;7658;51.456;7.622;2023-04-29T03:25:11;9.70;99.90
15115;DHT22;7658;51.456;7.622;2023-04-29T03:27:37;9.70;99.90
15115;DHT22;7658;51.456;7.622;2023-04-29T03:30:04;9.70;99.90
15115;DHT22;7658;51.456;7.622;2023-04-29T03:32:30;9.70;99.90
15115;DHT22;7658;51.456;7.622;2023-04-29T03:34:56;9.70;99.90
15115;DHT22;7658;51.456;7.622;2023-04-29T03:37:22;9.60;99.90
15115;DHT22;7658;51.456;7.622;2023-04-29T03:39:47;9.60;99.90
15115;DHT22;7658;51.456;7.622;2023-04-29T03:42:13;9.60;99.90
15115;DHT22;7658;51.456;7.622;2023-04-29T03:44:39;9.60;99.90
15115;DHT22;7658;51.456;7.622;2023-04-29T03:47:05;9.60;99.90
15115;DHT22;7658;51.456;7.622;2023-04-29T03:49:31;9.60;99.90
15115;DHT22;7658;51.456;7.622;2023-04-29T03:51:57;9.60;99.90
15115;DHT22;7658;51.456;7.622;2023-04-29T03:54:22;9.60;99.90
15115;DHT22;7658;51.456;7.622;2023-04-29T03:56:48;9.60;99.90
15115;DHT22;7658;51.456;7.622;2023-04-29T03:59:14;9.60;99.90
15115;DHT22;7658;51.456;7.622;2023-04-29T04:01:40;9.60;99.90
15115;DHT22;7658;51.456;7.622;2023-04-29T04:04:06;9.50;99.90
15115;DHT22;7658;51.456;7.622;2023-04-29T04:06:31;9.40;99.90
15115;DHT22;7658;51.456;7.622;2023-04-29T04:08:57;9.40;99.90
15115;DHT22;7658;51.456;7.622;2023-04-29T04:11:23;9.40;99.90
15115;DHT22;7658;51.456;7.622;2023-04-29T04:13:49;9.40;99.90
15115;DHT22;7658;51.456;7.622;2023-04-29T04:16:14;9.40;99.90
15115;DHT22;7658;51.456;7.622;2023-04-29T04:18:40;9.40;99.90
15115;DHT22;7658;51.456;7.622;2023-04-29T04:21:10;9.40;99.90
15115;DHT22;7658;51.456;7.622;2023-04-29T04:23:36;9.40;99.90
15115;DHT22;7658;51.456;7.622;2023-04-29T04:26:05;9.40;99.90
15115;DHT22;7658;51.456;7.622;2023-04-29T04:28:30;9.40;99.90
15115;DHT22;7658;51.456;7.622;2023-04-29T04:30:56;9.40;99.90
15115;DHT22;7658;51.456;7.622;2023-04-29T04:33:23;9.40;99.90
15115;DHT22;7658;51.456;7.622;2023-04-29T04:35:49;9.40;99.90
15115;DHT22;7658;51.456;7.622;2023-04-29T04:38:15;9.40;99.90
15115;DHT22;7658;51.456;7.622;2023-04-29T04:40:42;9.40;99.90
15115;DHT22;7658;51.456;7.622;2023-04-29T04:43:08;9.50;99.90
15115;DHT22;7658;51.456;7.622;2023-04-29T04:45:33;9.50;99.90
15115;DHT22;7658;51.456;7.622;2023-04-29T04:47:59;9.50;99.90
15115;DHT22;7658;51.456;7.622;2023-04-29T04:50:28;9.50;99.90
15115;DHT22;7658;51.456;7.622;2023-04-29T04:52:55;9.40;99.90
15115;DHT22;7658;51.456;7.622;2023-04-29T04:55:21;9.40;99.90
15115;DHT22;7658;51.456;7.622;2023-04-29T04:57:47;9.40;99.90
15115;DHT22;7658;51.456;7.622;2023-04-29T05:00:13;9.40;99.90
15115;DHT22;7658;51.456;7.622;2023-04-29T05:02:39;9.40;99.90
15115;DHT22;7658;51.456;7.622;2023-04-29T05:05:05;9.30;99.90
15115;DHT22;7658;51.456;7.622;2023-04-29T05:07:32;9.30;99.90
15115;DHT22;7658;51.456;7.622;2023-04-29T05:10:00;9.30;99.90
15115;DHT22;7658;51.456;7.622;2023-04-29T05:12:29;9.40;99.90
15115;DHT22;7658;51.456;7.622;2023-04-29T05:14:56;9.40;99.90
15115;DHT22;7658;51.456;7.622;2023-04-29T05:17:23;9.40;99.90
15115;DHT22;7658;51.456;7.622;2023-04-29T05:19:49;9.40;99.90
15115;DHT22;7658;51.456;7.622;2023-04-29T05:22:15;9.40;99.90
15115;DHT22;7658;51.456;7.622;2023-04-29T05:24:41;9.30;99.90
15115;DHT22;7658;51.456;7.622;2023-04-29T05:27:07;9.40;99.90
15115;DHT22;7658;51.456;7.622;2023-04-29T05:29:32;9.40;99.90
15115;DHT22;7658;51.456;7.622;2023-04-29T05:31:58;9.50;99.90
15115;DHT22;7658;51.456;7.622;2023-04-29T05:34:24;9.50;99.90
15115;DHT22;7658;51.456;7.622;2023-04-29T05:36:50;9.50;99.90
15115;DHT22;7658;51.456;7.622;2023-04-29T05:39:15;9.60;99.90
15115;DHT22;7658;51.456;7.622;2023-04-29T05:41:42;9.50;99.90
15115;DHT22;7658;51.456;7.622;2023-04-29T05:44:08;9.50;99.90
15115;DHT22;7658;51.456;7.622;2023-04-29T05:46:34;9.50;99.90
15115;DHT22;7658;51.456;7.622;2023-04-29T05:49:00;9.50;99.90
15115;DHT22;7658;51.456;7.622;2023-04-29T05:51:25;9.50;99.90
15115;DHT22;7658;51.456;7.622;2023-04-29T05:53:53;9.60;99.90
15115;DHT22;7658;51.456;7.622;2023-04-29T05:56:19;9.60;99.90
15115;DHT22;7658;51.456;7.622;2023-04-29T05:58:45;9.60;99.90
15115;DHT22;7658;51.456;7.622;2023-04-29T06:01:10;9.60;99.90
15115;DHT22;7658;51.456;7.622;2023-04-29T06:03:37;9.70;99.90
15115;DHT22;7658;51.456;7.622;2023-04-29T06:06:03;9.70;99.90
15115;DHT22;7658;51.456;7.622;2023-04-29T06:08:29;9.70;99.90
15115;DHT22;7658;51.456;7.622;2023-04-29T06:10:55;9.80;99.90
15115;DHT22;7658;51.456;7.622;2023-04-29T06:13:21;9.80;99.90
15115;DHT22;7658;51.456;7.622;2023-04-29T06:15:47;9.80;99.90
15115;DHT22;7658;51.456;7.622;2023-04-29T06:18:13;9.80;99.90
15115;DHT22;7658;51.456;7.622;2023-04-29T06:20:39;9.80;99.90
15115;DHT22;7658;51.456;7.622;2023-04-29T06:23:04;9.90;99.90
15115;DHT22;7658;51.456;7.622;2023-04-29T06:25:30;9.90;99.90
15115;DHT22;7658;51.456;7.622;2023-04-29T06:27:57;10.00;99.90
15115;DHT22;7658;51.456;7.622;2023-04-29T06:30:22;10.10;99.90
15115;DHT22;7658;51.456;7.622;2023-04-29T06:32:52;10.20;99.90
15115;DHT22;7658;51.456;7.622;2023-04-29T06:35:21;10.20;99.90
15115;DHT22;7658;51.456;7.622;2023-04-29T06:37:47;10.20;99.90
15115;DHT22;7658;51.456;7.622;2023-04-29T06:40:13;10.20;99.90
15115;DHT22;7658;51.456;7.622;2023-04-29T06:42:39;10.20;99.90
15115;DHT22;7658;51.456;7.622;2023-04-29T06:45:05;10.10;99.90
15115;DHT22;7658;51.456;7.622;2023-04-29T06:47:31;10.00;99.90
15115;DHT22;7658;51.456;7.622;2023-04-29T06:49:57;10.10;99.90
15115;DHT22;7658;51.456;7.622;2023-04-29T06:52:23;10.10;99.90
15115;DHT22;7658;51.456;7.622;2023-04-29T06:54:48;10.10;99.90
15115;DHT22;7658;51.456;7.622;2023-04-29T06:57:14;10.00;99.90
15115;DHT22;7658;51.456;7.622;2023-04-29T06:59:40;10.00;99.90
15115;DHT22;7658;51.456;7.622;2023-04-29T07:02:06;10.00;99.90
15115;DHT22;7658;51.456;7.622;2023-04-29T07:04:31;9.90;99.90
15115;DHT22;7658;51.456;7.622;2023-04-29T07:06:57;9.90;99.90
15115;DHT22;7658;51.456;7.622;2023-04-29T07:09:24;9.80;99.90
15115;DHT22;7658;51.456;7.622;2023-04-29T07:11:52;9.80;99.90
15115;DHT22;7658;51.456;7.622;2023-04-29T07:14:18;9.70;99.90
15115;DHT22;7658;51.456;7.622;2023-04-29T07:16:43;9.70;99.90
15115;DHT22;7658;51.456;7.622;2023-04-29T07:19:09;9.70;99.90
15115;DHT22;7658;51.456;7.622;2023-04-29T07:21:35;9.70;99.90
15115;DHT22;7658;51.456;7.622;2023-04-29T07:24:01;9.70;99.90
15115;DHT22;7658;51.456;7.622;2023-04-29T07:26:29;9.70;99.90
15115;DHT22;7658;51.456;7.622;2023-04-29T07:28:55;9.70;99.90
15115;DHT22;7658;51.456;7.622;2023-04-29T07:31:21;9.60;99.90
15115;DHT22;7658;51.456;7.622;2023-04-29T07:33:47;9.60;99.90
15115;DHT22;7658;51.456;7.622;2023-04-29T07:36:13;9.60;99.90
15115;DHT22;7658;51.456;7.622;2023-04-29T07:38:39;9.70;99.90
15115;DHT22;7658;51.456;7.622;2023-04-29T07:41:04;9.60;99.90
15115;DHT22;7658;51.456;7.622;2023-04-29T07:43:30;9.60;99.90
15115;DHT22;7658;51.456;7.622;2023-04-29T07:45:56;9.50;99.90
15115;DHT22;7658;51.456;7.622;2023-04-29T07:48:22;9.50;99.90
15115;DHT22;7658;51.456;7.622;2023-04-29T07:50:48;9.60;99.90
15115;DHT22;7658;51.456;7.622;2023-04-29T07:53:13;9.60;99.90
15115;DHT22;7658;51.456;7.622;2023-04-29T07:55:40;9.60;99.90
15115;DHT22;7658;51.456;7.622;2023-04-29T07:58:06;9.60;99.90
15115;DHT22;7658;51.456;7.622;2023-04-29T08:00:32;9.60;99.90
15115;DHT22;7658;51.456;7.622;2023-04-29T08:02:58;9.60;99.90
15115;DHT22;7658;51.456;7.622;2023-04-29T08:05:25;9.60;99.90
15115;DHT22;7658;51.456;7.622;2023-04-29T08:07:51;9.50;99.90
15115;DHT22;7658;51.456;7.622;2023-04-29T08:10:17;9.50;99.90
15115;DHT22;7658;51.456;7.622;2023-04-29T08:12:48;9.50;99.90
15115;DHT22;7658;51.456;7.622;2023-04-29T08:15:14;9.40;99.90
15115;DHT22;7658;51.456;7.622;2023-04-29T08:17:40;9.50;99.90
15115;DHT22;7658;51.456;7.622;2023-04-29T08:20:07;9.50;99.90
15115;DHT22;7658;51.456;7.622;2023-04-29T08:22:34;9.50;99.90
15115;DHT22;7658;51.456;7.622;2023-04-29T08:24:59;9.50;99.90
15115;DHT22;7658;51.456;7.622;2023-04-29T08:27:27;9.50;99.90
15115;DHT22;7658;51.456;7.622;2023-04-29T08:29:53;9.50;99.90
15115;DHT22;7658;51.456;7.622;2023-04-29T08:32:19;9.40;99.90
15115;DHT22;7658;51.456;7.622;2023-04-29T08:34:44;9.50;99.90
15115;DHT22;7658;51.456;7.622;2023-04-29T08:37:10;9.60;99.90
15115;DHT22;7658;51.456;7.622;2023-04-29T08:39:36;9.50;99.90
15115;DHT22;7658;51.456;7.622;2023-04-29T08:42:08;9.50;99.90
15115;DHT22;7658;51.456;7.622;2023-04-29T08:44:35;9.60;99.90
15115;DHT22;7658;51.456;7.622;2023-04-29T08:47:02;9.60;99.90
15115;DHT22;7658;51.456;7.622;2023-04-29T08:49:28;9.60;99.90
15115;DHT22;7658;51.456;7.622;2023-04-29T08:51:54;9.60;99.90
15115;DHT22;7658;51.456;7.622;2023-04-29T08:54:20;9.60;99.90
15115;DHT22;7658;51.456;7.622;2023-04-29T08:56:46;9.60;99.90
15115;DHT22;7658;51.456;7.622;2023-04-29T08:59:14;9.50;99.90
15115;DHT22;7658;51.456;7.622;2023-04-29T09:01:42;9.60;99.90
15115;DHT22;7658;51.456;7.622;2023-04-29T09:06:38;9.60;99.90
15115;DHT22;7658;51.456;7.622;2023-04-29T09:09:05;9.50;99.90
15115;DHT22;7658;51.456;7.622;2023-04-29T09:11:32;9.60;99.90
15115;DHT22;7658;51.456;7.622;2023-04-29T09:14:02;9.60;99.90
15115;DHT22;7658;51.456;7.622;2023-04-29T09:16:29;9.60;99.90
15115;DHT22;7658;51.456;7.622;2023-04-29T09:18:55;9.70;99.90
15115;DHT22;7658;51.456;7.622;2023-04-29T09:21:28;9.70;99.90
15115;DHT22;7658;51.456;7.622;2023-04-29T09:24:00;9.70;99.90
15115;DHT22;7658;51.456;7.622;2023-04-29T09:26:26;9.70;99.90
15115;DHT22;7658;51.456;7.622;2023-04-29T09:29:06;9.70;99.90
15115;DHT22;7658;51.456;7.622;2023-04-29T09:31:32;9.70;99.90
15115;DHT22;7658;51.456;7.622;2023-04-29T09:33:58;9.70;99.90
15115;DHT22;7658;51.456;7.622;2023-04-29T09:39:12;9.80;99.90
15115;DHT22;7658;51.456;7.622;2023-04-29T09:44:21;9.80;99.90
15115;DHT22;7658;51.456;7.622;2023-04-29T09:46:57;9.80;99.90
15115;DHT22;7658;51.456;7.622;2023-04-29T09:49:24;9.90;99.90
15115;DHT22;7658;51.456;7.622;2023-04-29T09:52:01;10.00;99.90
15115;DHT22;7658;51.456;7.622;2023-04-29T09:54:29;10.10;99.90
15115;DHT22;7658;51.456;7.622;2023-04-29T09:56:57;10.20;99.90
15115;DHT22;7658;51.456;7.622;2023-04-29T09:59:24;10.50;99.90
15115;DHT22;7658;51.456;7.622;2023-04-29T10:01:55;10.80;99.90
15115;DHT22;7658;51.456;7.622;2023-04-29T10:04:22;11.20;99.90
15115;DHT22;7658;51.456;7.622;2023-04-29T10:06:51;11.60;99.90
15115;DHT22;7658;51.456;7.622;2023-04-29T10:09:18;12.00;99.90
15115;DHT22;7658;51.456;7.622;2023-04-29T10:11:46;12.30;99.90
15115;DHT22;7658;51.456;7.622;2023-04-29T10:14:21;12.50;99.90
15115;DHT22;7658;51.456;7.622;2023-04-29T10:17:07;12.60;99.90
15115;DHT22;7658;51.456;7.622;2023-04-29T10:19:51;12.80;99.90
15115;DHT22;7658;51.456;7.622;2023-04-29T10:22:56;12.50;44.30
15115;DHT22;7658;51.456;7.622;2023-04-29T10:25:24;12.40;85.20
15115;DHT22;7658;51.456;7.622;2023-04-29T10:27:54;12.40;94.40
15115;DHT22;7658;51.456;7.622;2023-04-29T10:30:20;12.50;12.80
15115;DHT22;7658;51.456;7.622;2023-04-29T10:32:48;12.60;49.80
15115;DHT22;7658;51.456;7.622;2023-04-29T10:35:16;12.50;1.00
15115;DHT22;7658;51.456;7.622;2023-04-29T10:37:45;12.50;99.90
15115;DHT22;7658;51.456;7.622;2023-04-29T10:40:15;12.70;40.70
15115;DHT22;7658;51.456;7.622;2023-04-29T10:42:45;13.10;99.90
15115;DHT22;7658;51.456;7.622;2023-04-29T10:45:26;13.40;1.00
15115;DHT22;7658;51.456;7.622;2023-04-29T10:53:15;13.70;1.00
15115;DHT22;7658;51.456;7.622;2023-04-29T10:55:42;13.70;99.90
15115;DHT22;7658;51.456;7.622;2023-04-29T11:01:01;13.60;99.90
15115;DHT22;7658;51.456;7.622;2023-04-29T11:03:57;13.80;1.00
15115;DHT22;7658;51.456;7.622;2023-04-29T11:09:08;13.80;1.00
15115;DHT22;7658;51.456;7.622;2023-04-29T11:14:07;14.20;1.00
15115;DHT22;7658;51.456;7.622;2023-04-29T11:16:35;14.30;99.90
15115;DHT22;7658;51.456;7.622;2023-04-29T11:19:08;14.30;1.00
15115;DHT22;7658;51.456;7.622;2023-04-29T11:21:35;14.30;99.90
15115;DHT22;7658;51.456;7.622;2023-04-29T11:24:02;14.30;99.90
15115;DHT22;7658;51.456;7.622;2023-04-29T11:26:29;14.10;99.90
15115;DHT22;7658;51.456;7.622;2023-04-29T11:28:55;14.10;99.90
15115;DHT22;7658;51.456;7.622;2023-04-29T11:31:32;13.90;1.00
15115;DHT22;7658;51.456;7.622;2023-04-29T11:33:58;14.00;1.00
15115;DHT22;7658;51.456;7.622;2023-04-29T11:36:25;14.00;1.00
15115;DHT22;7658;51.456;7.622;2023-04-29T11:38:52;14.10;43.90
15115;DHT22;7658;51.456;7.622;2023-04-29T11:41:19;14.20;86.60
15115;DHT22;7658;51.456;7.622;2023-04-29T11:43:46;14.30;99.90
15115;DHT22;7658;51.456;7.622;2023-04-29T11:46:14;14.20;1.00
15115;DHT22;7658;51.456;7.622;2023-04-29T11:48:46;14.10;1.00
15115;DHT22;7658;51.456;7.622;2023-04-29T11:51:13;14.10;1.00
15115;DHT22;7658;51.456;7.622;2023-04-29T11:53:40;14.10;1.00
15115;DHT22;7658;51.456;7.622;2023-04-29T11:56:07;14.20;1.00
15115;DHT22;7658;51.456;7.622;2023-04-29T11:58:33;14.40;1.00
15115;DHT22;7658;51.456;7.622;2023-04-29T12:00:59;14.40;99.90
15115;DHT22;7658;51.456;7.622;2023-04-29T12:03:25;14.40;99.90
15115;DHT22;7658;51.456;7.622;2023-04-29T12:05:53;14.40;99.90
15115;DHT22;7658;51.456;7.622;2023-04-29T12:08:23;14.30;99.90
15115;DHT22;7658;51.456;7.622;2023-04-29T12:10:49;14.20;99.90
15115;DHT22;7658;51.456;7.622;2023-04-29T12:13:19;14.00;99.90
15115;DHT22;7658;51.456;7.622;2023-04-29T12:15:48;13.80;99.90
15115;DHT22;7658;51.456;7.622;2023-04-29T12:18:17;13.70;99.90
15115;DHT22;7658;51.456;7.622;2023-04-29T12:20:46;13.70;1.00
15115;DHT22;7658;51.456;7.622;2023-04-29T12:23:22;13.60;99.90
15115;DHT22;7658;51.456;7.622;2023-04-29T12:25:54;13.40;99.90
15115;DHT22;7658;51.456;7.622;2023-04-29T12:28:21;13.30;1.00
15115;DHT22;7658;51.456;7.622;2023-04-29T12:30:48;13.30;1.00
15115;DHT22;7658;51.456;7.622;2023-04-29T12:33:36;13.30;1.00
15115;DHT22;7658;51.456;7.622;2023-04-29T12:36:02;13.20;1.00
15115;DHT22;7658;51.456;7.622;2023-04-29T12:38:31;13.10;1.00
15115;DHT22;7658;51.456;7.622;2023-04-29T12:41:00;12.90;1.00
15115;DHT22;7658;51.456;7.622;2023-04-29T12:43:31;12.90;1.00
15115;DHT22;7658;51.456;7.622;2023-04-29T12:46:05;13.00;1.00
15115;DHT22;7658;51.456;7.622;2023-04-29T12:48:34;13.00;1.00
15115;DHT22;7658;51.456;7.622;2023-04-29T12:51:00;13.00;1.00
15115;DHT22;7658;51.456;7.622;2023-04-29T12:53:28;13.10;1.00
15115;DHT22;7658;51.456;7.622;2023-04-29T12:55:54;13.30;1.00
15115;DHT22;7658;51.456;7.622;2023-04-29T12:58:21;13.50;1.00
15115;DHT22;7658;51.456;7.622;2023-04-29T13:00:47;13.70;1.00
15115;DHT22;7658;51.456;7.622;2023-04-29T13:03:13;13.80;1.00
15115;DHT22;7658;51.456;7.622;2023-04-29T13:05:39;13.70;99.90
15115;DHT22;7658;51.456;7.622;2023-04-29T13:08:05;13.60;99.90
15115;DHT22;7658;51.456;7.622;2023-04-29T13:10:33;13.60;99.90
15115;DHT22;7658;51.456;7.622;2023-04-29T13:12:59;13.70;99.90
15115;DHT22;7658;51.456;7.622;2023-04-29T13:15:26;13.60;99.90
15115;DHT22;7658;51.456;7.622;2023-04-29T13:17:52;13.60;99.90
15115;DHT22;7658;51.456;7.622;2023-04-29T13:20:18;13.60;99.90
15115;DHT22;7658;51.456;7.622;2023-04-29T13:22:45;13.60;99.90
15115;DHT22;7658;51.456;7.622;2023-04-29T13:25:11;13.70;99.90
15115;DHT22;7658;51.456;7.622;2023-04-29T13:27:37;13.70;99.90
15115;DHT22;7658;51.456;7.622;2023-04-29T13:30:07;13.70;99.90
15115;DHT22;7658;51.456;7.622;2023-04-29T13:32:33;13.70;99.90
15115;DHT22;7658;51.456;7.622;2023-04-29T13:34:59;13.90;99.90
15115;DHT22;7658;51.456;7.622;2023-04-29T13:37:25;14.00;99.90
15115;DHT22;7658;51.456;7.622;2023-04-29T13:39:51;14.20;99.90
15115;DHT22;7658;51.456;7.622;2023-04-29T13:42:16;14.30;99.90
15115;DHT22;7658;51.456;7.622;2023-04-29T13:44:42;14.40;99.90
15115;DHT22;7658;51.456;7.622;2023-04-29T13:47:10;14.30;43.00
15115;DHT22;7658;51.456;7.622;2023-04-29T13:49:39;14.40;51.00
15115;DHT22;7658;51.456;7.622;2023-04-29T13:52:06;14.40;99.90
15115;DHT22;7658;51.456;7.622;2023-04-29T13:54:32;14.30;1.00
15115;DHT22;7658;51.456;7.622;2023-04-29T13:56:58;14.30;99.90
15115;DHT22;7658;51.456;7.622;2023-04-29T13:59:24;14.30;52.20
15115;DHT22;7658;51.456;7.622;2023-04-29T14:01:49;14.20;99.90
15115;DHT22;7658;51.456;7.622;2023-04-29T14:04:15;14.20;99.90
15115;DHT22;7658;51.456;7.622;2023-04-29T14:06:44;14.20;99.90
15115;DHT22;7658;51.456;7.622;2023-04-29T14:09:10;14.20;99.90
15115;DHT22;7658;51.456;7.622;2023-04-29T14:11:36;14.10;99.90
15115;DHT22;7658;51.456;7.622;2023-04-29T14:14:02;14.00;99.90
15115;DHT22;7658;51.456;7.622;2023-04-29T14:16:28;14.10;99.90
15115;DHT22;7658;51.456;7.622;2023-04-29T14:18:54;14.00;51.90
15115;DHT22;7658;51.456;7.622;2023-04-29T14:21:20;14.00;67.10
15115;DHT22;7658;51.456;7.622;2023-04-29T14:23:49;13.90;36.80
15115;DHT22;7658;51.456;7.622;2023-04-29T14:26:15;13.80;69.00
15115;DHT22;7658;51.456;7.622;2023-04-29T14:28:41;13.70;17.00
15115;DHT22;7658;51.456;7.622;2023-04-29T14:31:06;13.70;99.90
15115;DHT22;7658;51.456;7.622;2023-04-29T14:33:32;13.60;99.90
15115;DHT22;7658;51.456;7.622;2023-04-29T14:35:58;13.60;98.40
15115;DHT22;7658;51.456;7.622;2023-04-29T14:38:25;13.60;99.90
15115;DHT22;7658;51.456;7.622;2023-04-29T14:40:51;13.60;99.90
15115;DHT22;7658;51.456;7.622;2023-04-29T14:43:17;13.60;99.90
15115;DHT22;7658;51.456;7.622;2023-04-29T14:45:43;13.50;66.50
15115;DHT22;7658;51.456;7.622;2023-04-29T14:48:10;13.40;99.90
15115;DHT22;7658;51.456;7.622;2023-04-29T14:50:36;13.30;99.90
15115;DHT22;7658;51.456;7.622;2023-04-29T14:53:01;13.20;99.90
15115;DHT22;7658;51.456;7.622;2023-04-29T14:55:27;13.10;99.90
15115;DHT22;7658;51.456;7.622;2023-04-29T14:57:53;13.10;99.90
15115;DHT22;7658;51.456;7.622;2023-04-29T15:00:19;13.00;99.90
15115;DHT22;7658;51.456;7.622;2023-04-29T15:02:46;13.00;99.90
15115;DHT22;7658;51.456;7.622;2023-04-29T15:05:11;13.00;99.90
15115;DHT22;7658;51.456;7.622;2023-04-29T15:07:37;13.00;99.90
15115;DHT22;7658;51.456;7.622;2023-04-29T15:10:03;13.00;99.90
15115;DHT22;7658;51.456;7.622;2023-04-29T15:12:31;12.90;99.90
15115;DHT22;7658;51.456;7.622;2023-04-29T15:14:57;13.00;99.90
15115;DHT22;7658;51.456;7.622;2023-04-29T15:17:22;13.00;99.90
15115;DHT22;7658;51.456;7.622;2023-04-29T15:19:48;13.10;99.90
15115;DHT22;7658;51.456;7.622;2023-04-29T15:22:14;13.10;99.90
15115;DHT22;7658;51.456;7.622;2023-04-29T15:24:40;13.20;99.90
15115;DHT22;7658;51.456;7.622;2023-04-29T15:27:06;13.40;99.90
15115;DHT22;7658;51.456;7.622;2023-04-29T15:29:32;13.50;99.90
15115;DHT22;7658;51.456;7.622;2023-04-29T15:31:59;13.60;99.90
15115;DHT22;7658;51.456;7.622;2023-04-29T15:34:25;13.70;99.90
15115;DHT22;7658;51.456;7.622;2023-04-29T15:36:50;14.00;99.90
15115;DHT22;7658;51.456;7.622;2023-04-29T15:39:16;14.30;90.90
15115;DHT22;7658;51.456;7.622;2023-04-29T15:41:42;14.40;3.30
15115;DHT22;7658;51.456;7.622;2023-04-29T15:44:08;14.60;1.00
15115;DHT22;7658;51.456;7.622;2023-04-29T15:46:33;15.10;1.00
15115;DHT22;7658;51.456;7.622;2023-04-29T15:48:59;15.40;1.00
15115;DHT22;7658;51.456;7.622;2023-04-29T15:51:25;15.80;1.00
15115;DHT22;7658;51.456;7.622;2023-04-29T15:53:51;15.90;1.00
15115;DHT22;7658;51.456;7.622;2023-04-29T15:56:17;15.70;1.00
15115;DHT22;7658;51.456;7.622;2023-04-29T15:58:42;15.60;1.00
15115;DHT22;7658;51.456;7.622;2023-04-29T16:01:08;15.50;1.00
15115;DHT22;7658;51.456;7.622;2023-04-29T16:03:34;15.30;1.00
15115;DHT22;7658;51.456;7.622;2023-04-29T16:06:00;15.20;1.00
15115;DHT22;7658;51.456;7.622;2023-04-29T16:08:26;15.20;1.00
15115;DHT22;7658;51.456;7.622;2023-04-29T16:10:51;15.10;1.00
15115;DHT22;7658;51.456;7.622;2023-04-29T16:13:17;14.90;1.00
15115;DHT22;7658;51.456;7.622;2023-04-29T16:15:43;14.90;1.00
15115;DHT22;7658;51.456;7.622;2023-04-29T16:18:09;14.80;1.00
15115;DHT22;7658;51.456;7.622;2023-04-29T16:20:35;14.70;1.00
15115;DHT22;7658;51.456;7.622;2023-04-29T16:23:01;14.50;1.00